Grundy, VA (24614)

1:36 AM EDT on April 25, 2017 (GMT -0400)
Elkhorn City | | Change Station

Elev 1000 ft 37.30 °N, 82.35 °W | Updated 5 seconds ago

Overcast
Overcast
53.6 °F
Feels Like 53.6 °F
N
0.0
Wind Variable Wind from ESE
Gusts 0.0 mph

Today
High -- | Low -- °F
--% Chance of Precip.
Yesterday
High -- | Low -- °F
Precip. -- in
Pressure 29.79 in
Visibility 10.0 miles
Clouds Scattered Clouds 200 ft
Overcast 1300 ft
Dew Point 53 °F
Humidity 98%
Rainfall 0.00 in
Snow Depth Not available.
6:40 AM 8:12 PM
Waning Crescent, 2% visible
METAR KJFZ 250515Z AUTO 00000KT 10SM SCT002 OVC013 10/10 A2979 RMK AO2 T00960096
Pressure 29.79 in
Visibility 10.0 miles
Clouds Scattered Clouds 200 ft
Overcast 1300 ft
Dew Point 53 °F
Humidity 98%
Rainfall 0.00 in
Snow Depth Not available.
6:40 AM 8:12 PM
Waning Crescent, 2% visible
METAR KJFZ 250515Z AUTO 00000KT 10SM SCT002 OVC013 10/10 A2979 RMK AO2 T00960096

Get Severe Weather Alerts

Thanks for signing up!

Be on the lookout for a verification email in your inbox.

You'll start receiving the daily forecast at 8 AM.

×

10-Day Weather Forecast

Almanac

Astronomy

Apr. 25, 2017 Rise Set
Actual Time
Civil Twilight
Nautical Twilight
Astronomical Twilight
Moon
Length of Visible Light
Length of Day
Tomorrow will be .
, % of the Moon is Illuminated

Today's Extremes

State Highs State Lows

Community

WunderPhotos

WunderBlog® & News

Nearby

Air Quality

  Air Quality AQ Index Pollutant
Not available.

Snow Depth

Station Depth Elevation

Earthquake Activity

City Distance Mag. Time & Date
Minimum magnitude displayed is 2.5.

Coastal Water Temperatures

Place Temperature

Stations

Nearby Weather Stations

Station Location Temp. Windchill Dew Point Humidity Wind Precip. Elev Updated Type
                   

Watches & Warnings

There are currently no watches in effect.